Time;durP1;ratioP1;P1;durP2;ratioP2;P2;SDS_P1;SDS_P2;PMS_P1;PMS_P2;Temp;Humidity;BMP_temperature;BMP_pressure;BME280_temperature;BME280_humidity;BME280_pressure;Samples;Min_cycle;Max_cycle;Signal;HPM_P1;HPM_P2
2023/06/22 00:05:57;;;;;;;6.85;4.15;;;28.90;78.70;;;;;;10844612;32;20401;-72
2023/06/22 00:11:59;;;;;;;5.70;3.70;;;28.80;78.80;;;;;;10857501;32;20028;-72
2023/06/22 00:18:02;;;;;;;5.78;4.07;;;28.80;78.80;;;;;;10861020;32;20020;-72
2023/06/22 00:24:06;;;;;;;6.70;4.22;;;28.80;78.60;;;;;;10847641;32;20040;-72
2023/06/22 00:30:08;;;;;;;7.78;3.45;;;28.70;78.70;;;;;;10860550;32;20019;-72
2023/06/22 00:36:13;;;;;;;5.68;3.97;;;28.70;79.00;;;;;;10860241;32;20059;-72
2023/06/22 00:42:31;;;;;;;6.45;3.60;;;28.60;79.50;;;;;;10844071;32;20016;-72
2023/06/22 00:48:33;;;;;;;5.62;3.25;;;28.70;79.40;;;;;;10865700;32;20054;-72
2023/06/22 00:54:36;;;;;;;5.35;3.95;;;28.60;79.60;;;;;;10866388;32;20020;-72
2023/06/22 01:00:39;;;;;;;5.10;3.47;;;28.50;79.70;;;;;;10866247;32;20024;-72
2023/06/22 01:06:52;;;;;;;8.88;3.70;;;28.50;79.80;;;;;;10864589;32;20050;-72
2023/06/22 01:13:03;;;;;;;5.55;3.83;;;28.40;79.70;;;;;;10850971;32;20023;-72
2023/06/22 01:19:41;;;;;;;5.00;3.45;;;28.30;79.90;;;;;;10850668;32;20397;-72
2023/06/22 01:26:06;;;;;;;5.75;4.03;;;28.30;80.00;;;;;;10849678;32;20428;-72
2023/06/22 01:32:11;;;;;;;5.45;3.95;;;28.20;80.00;;;;;;10865285;32;20031;-72
2023/06/22 01:38:13;;;;;;;7.87;4.95;;;28.10;80.40;;;;;;10865322;32;20050;-72
2023/06/22 01:44:15;;;;;;;9.23;5.03;;;28.10;80.10;;;;;;10861576;32;20058;-72
2023/06/22 01:50:17;;;;;;;7.30;5.50;;;28.00;80.10;;;;;;10848077;32;20028;-72
2023/06/22 01:56:20;;;;;;;6.97;4.57;;;28.00;79.90;;;;;;10860938;32;20024;-72
2023/06/22 02:02:29;;;;;;;9.13;6.80;;;28.00;79.80;;;;;;10860574;32;20337;-72
2023/06/22 02:08:51;;;;;;;5.75;4.68;;;27.80;79.90;;;;;;10864319;32;20043;-72
2023/06/22 02:14:54;;;;;;;5.93;4.37;;;27.90;79.80;;;;;;10863880;32;20023;-73
2023/06/22 02:20:56;;;;;;;6.32;4.85;;;27.80;80.40;;;;;;10864512;32;20016;-72
2023/06/22 02:26:59;;;;;;;7.82;5.93;;;27.80;80.50;;;;;;10863944;32;20035;-72
2023/06/22 02:33:02;;;;;;;6.95;5.15;;;27.60;80.30;;;;;;10864043;32;20291;-72
2023/06/22 02:39:04;;;;;;;6.50;4.85;;;27.50;80.20;;;;;;10864708;32;20016;-72
2023/06/22 02:45:06;;;;;;;6.25;4.78;;;27.50;80.20;;;;;;10862892;32;20035;-72
2023/06/22 02:51:09;;;;;;;8.30;5.45;;;27.40;80.10;;;;;;10859549;32;20016;-72
2023/06/22 02:57:13;;;;;;;6.00;4.43;;;27.50;80.50;;;;;;10847285;32;20433;-72
2023/06/22 03:03:15;;;;;;;7.47;5.28;;;27.50;80.20;;;;;;10863946;32;20329;-72
2023/06/22 03:09:17;;;;;;;6.80;4.82;;;27.40;80.10;;;;;;10862359;32;20012;-72
2023/06/22 03:15:20;;;;;;;8.98;5.53;;;27.30;80.20;;;;;;10846398;32;20020;-72
2023/06/22 03:21:28;;;;;;;5.87;4.57;;;27.30;80.20;;;;;;10860483;32;20038;-72
2023/06/22 03:27:30;;;;;;;8.20;5.87;;;27.30;80.20;;;;;;10862276;32;20055;-72
2023/06/22 03:33:32;;;;;;;7.65;5.32;;;27.10;80.20;;;;;;10848516;32;20032;-72
2023/06/22 03:39:34;;;;;;;8.82;6.47;;;27.20;80.50;;;;;;10863125;32;20042;-72
2023/06/22 03:45:37;;;;;;;8.35;5.60;;;27.30;80.10;;;;;;10833343;32;20058;-72
2023/06/22 03:51:39;;;;;;;9.98;6.93;;;27.30;79.70;;;;;;10862207;32;20069;-72
2023/06/22 03:57:48;;;;;;;8.20;6.35;;;27.30;79.50;;;;;;10858384;32;20082;-72
2023/06/22 04:03:52;;;;;;;8.45;6.62;;;27.30;79.50;;;;;;10842632;32;20031;-73
2023/06/22 04:09:54;;;;;;;8.05;6.30;;;27.20;79.70;;;;;;10861605;32;20042;-73
2023/06/22 04:15:56;;;;;;;10.32;7.82;;;27.00;80.00;;;;;;10861898;32;20050;-73
2023/06/22 04:21:58;;;;;;;8.82;7.30;;;26.90;80.10;;;;;;10867439;32;20023;-73
2023/06/22 04:28:03;;;;;;;9.77;7.80;;;26.90;80.10;;;;;;10850130;32;20086;-73
2023/06/22 04:34:06;;;;;;;11.32;7.72;;;26.80;80.10;;;;;;10864078;32;20538;-73
2023/06/22 04:40:09;;;;;;;13.27;5.87;;;26.80;80.20;;;;;;10864974;32;20428;-73
2023/06/22 04:46:11;;;;;;;8.82;7.15;;;26.90;80.20;;;;;;10863894;32;20128;-73
2023/06/22 04:52:20;;;;;;;8.43;6.03;;;26.80;80.30;;;;;;10864462;32;20346;-73
2023/06/22 04:58:22;;;;;;;11.45;8.27;;;26.90;80.30;;;;;;10866896;32;20084;-73
2023/06/22 05:04:25;;;;;;;9.65;7.03;;;27.00;80.40;;;;;;10866780;32;20016;-72
2023/06/22 05:10:27;;;;;;;8.65;7.00;;;27.00;80.10;;;;;;10865173;32;20016;-73
2023/06/22 05:16:29;;;;;;;12.57;7.80;;;27.10;80.00;;;;;;10864893;32;20031;-73
2023/06/22 05:22:31;;;;;;;11.00;8.20;;;27.30;80.00;;;;;;10851491;32;20069;-73
2023/06/22 05:28:33;;;;;;;11.55;7.03;;;27.30;80.00;;;;;;10865428;32;20024;-73
2023/06/22 05:34:35;;;;;;;10.18;7.45;;;27.60;80.00;;;;;;10866576;32;20024;-72
2023/06/22 05:40:37;;;;;;;13.13;10.98;;;27.80;79.80;;;;;;10864637;32;20028;-72
2023/06/22 05:46:44;;;;;;;11.23;8.27;;;27.90;79.50;;;;;;10851094;32;20028;-72
2023/06/22 05:52:46;;;;;;;15.03;11.10;;;28.00;79.40;;;;;;10851833;32;20061;-72
2023/06/22 05:58:48;;;;;;;9.23;7.62;;;28.20;79.00;;;;;;10864334;32;20050;-72
2023/06/22 06:04:52;;;;;;;8.70;6.18;;;28.30;79.10;;;;;;10850781;32;20031;-72
2023/06/22 06:11:03;;;;;;;10.40;7.87;;;28.40;79.20;;;;;;10866250;32;20046;-72
2023/06/22 06:17:05;;;;;;;10.45;7.95;;;28.50;79.10;;;;;;10862796;32;20042;-72
2023/06/22 06:23:07;;;;;;;9.18;7.05;;;28.50;79.00;;;;;;10861910;32;20032;-72
2023/06/22 06:29:09;;;;;;;13.02;8.50;;;28.40;79.10;;;;;;10861348;32;20016;-72
2023/06/22 06:35:13;;;;;;;12.45;7.43;;;28.60;78.90;;;;;;10848849;32;20067;-72
2023/06/22 06:41:17;;;;;;;10.13;7.65;;;28.60;78.30;;;;;;10863409;32;20027;-72
2023/06/22 06:47:19;;;;;;;12.02;6.97;;;28.80;78.10;;;;;;10864348;32;20038;-73
2023/06/22 06:53:21;;;;;;;7.68;5.45;;;28.90;78.00;;;;;;10864262;32;20096;-72
2023/06/22 06:59:23;;;;;;;8.93;6.57;;;29.00;77.50;;;;;;10859698;32;20023;-72
2023/06/22 07:05:25;;;;;;;9.98;6.55;;;29.10;77.70;;;;;;10863994;32;20385;-73
2023/06/22 07:11:28;;;;;;;6.28;4.20;;;29.10;77.50;;;;;;10863037;32;20024;-72
2023/06/22 07:17:30;;;;;;;6.37;4.37;;;29.30;77.90;;;;;;10848801;32;20054;-72
2023/06/22 07:23:32;;;;;;;10.57;6.18;;;29.30;77.40;;;;;;10847371;32;20059;-73
2023/06/22 07:29:35;;;;;;;8.70;5.37;;;29.50;77.20;;;;;;10864843;27;20035;-73
2023/06/22 07:35:39;;;;;;;9.27;6.25;;;29.50;76.90;;;;;;10861936;32;20349;-73
2023/06/22 07:41:41;;;;;;;6.87;4.80;;;29.70;76.10;;;;;;10861737;32;20046;-73
2023/06/22 07:47:43;;;;;;;8.70;5.30;;;29.90;75.90;;;;;;10860964;32;20042;-73
2023/06/22 07:53:45;;;;;;;6.30;4.47;;;29.90;75.60;;;;;;10847570;32;20039;-73
2023/06/22 07:59:47;;;;;;;7.93;5.05;;;29.90;75.80;;;;;;10846784;32;20054;-73
2023/06/22 08:05:49;;;;;;;7.93;4.60;;;29.90;75.30;;;;;;10847908;32;20012;-73
2023/06/22 08:11:51;;;;;;;8.25;5.75;;;30.00;75.00;;;;;;10858796;32;20039;-74
2023/06/22 08:17:53;;;;;;;8.15;5.07;;;30.10;74.70;;;;;;10857969;32;20046;-74
2023/06/22 08:23:55;;;;;;;7.87;6.00;;;30.20;74.40;;;;;;10845457;32;20042;-73
2023/06/22 08:30:04;;;;;;;8.10;5.37;;;30.20;73.50;;;;;;10844749;32;20038;-74
2023/06/22 08:36:10;;;;;;;7.90;5.72;;;30.30;73.00;;;;;;10861741;32;20020;-73
2023/06/22 08:42:13;;;;;;;14.30;6.68;;;30.40;72.50;;;;;;10841210;32;20406;-74
2023/06/22 08:48:15;;;;;;;8.55;6.25;;;30.50;71.00;;;;;;10823719;33;20042;-73
2023/06/22 08:54:17;;;;;;;8.00;5.30;;;30.60;71.00;;;;;;10823326;33;20019;-73
2023/06/22 09:00:20;;;;;;;7.80;4.95;;;30.80;70.20;;;;;;10811127;33;20039;-73
2023/06/22 09:06:46;;;;;;;14.65;7.00;;;30.90;69.90;;;;;;10812706;33;20082;-73
2023/06/22 09:12:48;;;;;;;5.85;4.37;;;31.00;69.60;;;;;;10815092;33;20067;-73
2023/06/22 09:18:50;;;;;;;10.02;5.12;;;31.00;69.40;;;;;;10815673;33;20036;-73
2023/06/22 09:24:52;;;;;;;7.87;5.12;;;31.20;69.20;;;;;;10815405;33;20068;-73
2023/06/22 09:31:10;;;;;;;9.48;4.78;;;31.30;68.40;;;;;;10828822;33;20467;-73
2023/06/22 09:37:12;;;;;;;9.13;6.35;;;31.50;68.00;;;;;;10828806;33;20063;-73
2023/06/22 09:43:36;;;;;;;8.07;6.30;;;31.60;67.30;;;;;;10826174;33;20346;-73
2023/06/22 09:49:38;;;;;;;12.10;5.55;;;31.70;66.80;;;;;;10829236;33;20035;-74
2023/06/22 09:55:39;;;;;;;10.63;6.80;;;31.80;66.20;;;;;;10827906;33;20021;-74
2023/06/22 10:01:42;;;;;;;6.25;4.78;;;31.90;65.80;;;;;;10815168;33;20034;-73
2023/06/22 10:14:42;;;;;;;9.82;6.90;;;32.30;64.50;;;;;;10827333;32;20052;-74
2023/06/22 10:20:48;;;;;;;9.60;5.43;;;32.50;63.40;;;;;;10826962;33;20021;-73
2023/06/22 10:26:50;;;;;;;9.43;6.90;;;32.60;64.10;;;;;;10826637;32;20043;-73
2023/06/22 10:32:53;;;;;;;11.63;5.60;;;32.80;65.50;;;;;;10826484;33;20020;-72
2023/06/22 10:38:55;;;;;;;10.13;5.85;;;32.90;64.60;;;;;;10826582;33;20020;-73
2023/06/22 10:44:57;;;;;;;7.68;5.50;;;33.10;63.80;;;;;;10823499;33;20342;-73
2023/06/22 10:50:59;;;;;;;9.55;6.72;;;33.20;63.20;;;;;;10826271;33;20031;-73
2023/06/22 10:57:02;;;;;;;7.82;5.53;;;33.40;62.50;;;;;;10826013;33;20016;-73
2023/06/22 11:03:04;;;;;;;5.85;4.60;;;33.40;62.60;;;;;;10822622;33;20024;-73
2023/06/22 11:09:06;;;;;;;7.15;4.68;;;33.50;62.50;;;;;;10822771;33;20333;-73
2023/06/22 11:15:09;;;;;;;7.32;5.60;;;33.70;62.20;;;;;;10811774;33;20060;-74
2023/06/22 11:21:11;;;;;;;10.15;6.18;;;33.80;62.20;;;;;;10825328;33;20059;-72
2023/06/22 11:27:13;;;;;;;10.63;6.03;;;33.90;61.00;;;;;;10809186;33;20028;-73
2023/06/22 11:33:15;;;;;;;8.40;4.95;;;34.10;60.30;;;;;;10824885;33;20028;-73
2023/06/22 11:39:17;;;;;;;8.77;5.22;;;34.20;61.50;;;;;;10811350;33;20330;-73
2023/06/22 11:45:20;;;;;;;10.55;6.62;;;34.40;60.70;;;;;;10811365;33;20028;-72
2023/06/22 11:51:22;;;;;;;6.32;4.22;;;34.50;60.00;;;;;;10824545;33;20429;-73
2023/06/22 11:57:24;;;;;;;8.63;5.18;;;34.50;59.10;;;;;;10824395;33;20028;-72
2023/06/22 12:03:27;;;;;;;12.13;5.00;;;34.70;61.90;;;;;;10820266;33;20012;-73
2023/06/22 12:09:29;;;;;;;8.80;4.57;;;34.70;60.80;;;;;;10824052;33;20020;-73
2023/06/22 12:15:31;;;;;;;11.32;6.20;;;34.90;59.20;;;;;;10810841;33;20015;-72
2023/06/22 12:21:33;;;;;;;8.77;5.70;;;34.90;60.00;;;;;;10823925;33;20059;-73
2023/06/22 12:27:35;;;;;;;8.10;5.53;;;34.90;59.50;;;;;;10823785;33;20020;-73
2023/06/22 12:33:38;;;;;;;6.95;4.62;;;34.90;58.00;;;;;;10810384;33;20039;-73
2023/06/22 12:39:43;;;;;;;9.10;4.87;;;35.00;57.40;;;;;;10826032;32;20315;-73
2023/06/22 12:45:45;;;;;;;7.60;4.97;;;35.10;56.10;;;;;;10829970;33;20047;-74
2023/06/22 12:51:48;;;;;;;5.68;4.20;;;35.10;55.70;;;;;;10829643;33;20117;-73
2023/06/22 12:57:50;;;;;;;11.02;4.55;;;35.30;54.50;;;;;;10816445;33;20016;-74
2023/06/22 13:03:52;;;;;;;8.32;4.45;;;35.20;54.90;;;;;;10816223;33;20078;-74
2023/06/22 13:09:54;;;;;;;7.10;4.80;;;35.20;54.10;;;;;;10829087;33;20019;-73
2023/06/22 13:15:56;;;;;;;12.95;4.85;;;35.20;53.30;;;;;;10828934;33;20020;-73
2023/06/22 13:21:59;;;;;;;6.28;3.87;;;35.30;53.20;;;;;;10815509;33;20055;-73
2023/06/22 13:28:01;;;;;;;7.82;4.62;;;35.20;53.90;;;;;;10828490;33;20024;-74
2023/06/22 13:34:03;;;;;;;11.93;4.40;;;35.00;53.50;;;;;;10828482;33;20046;-72
2023/06/22 13:40:07;;;;;;;6.85;3.55;;;35.10;53.10;;;;;;10824342;33;20024;-74
2023/06/22 13:46:09;;;;;;;7.15;4.35;;;35.00;53.30;;;;;;10814505;33;20320;-73
2023/06/22 13:52:12;;;;;;;5.37;3.33;;;35.00;54.00;;;;;;10827215;32;20020;-73
2023/06/22 13:58:14;;;;;;;7.35;4.90;;;34.90;53.00;;;;;;10827697;33;20329;-73
2023/06/22 14:04:16;;;;;;;6.55;3.97;;;35.00;52.40;;;;;;10823505;33;20024;-73
2023/06/22 14:10:18;;;;;;;8.05;3.00;;;35.00;53.60;;;;;;10827449;33;20047;-74
2023/06/22 14:16:21;;;;;;;5.07;3.30;;;34.80;55.80;;;;;;10814050;33;20032;-73
2023/06/22 14:22:23;;;;;;;11.12;4.25;;;34.90;54.60;;;;;;10827073;33;20073;-73
2023/06/22 14:28:25;;;;;;;6.50;4.20;;;34.80;54.70;;;;;;10826866;33;20020;-73
2023/06/22 14:34:27;;;;;;;6.12;4.47;;;34.70;54.60;;;;;;10826444;33;20024;-72
2023/06/22 14:40:29;;;;;;;13.65;4.53;;;34.80;56.00;;;;;;10813977;32;20039;-73
2023/06/22 14:46:31;;;;;;;8.82;4.37;;;34.60;58.30;;;;;;10826331;33;20024;-73
2023/06/22 14:52:33;;;;;;;5.70;3.67;;;34.40;60.00;;;;;;10823517;33;20063;-74
2023/06/22 14:58:35;;;;;;;8.82;4.85;;;34.40;58.30;;;;;;10826072;33;20024;-73
2023/06/22 15:04:37;;;;;;;4.10;2.97;;;34.40;59.20;;;;;;10825669;32;20046;-73
2023/06/22 15:10:39;;;;;;;5.50;3.45;;;34.40;58.30;;;;;;10811872;33;20058;-74
2023/06/22 15:16:41;;;;;;;10.40;4.32;;;34.40;57.30;;;;;;10825158;33;20420;-73
2023/06/22 15:22:43;;;;;;;8.52;3.83;;;34.60;55.90;;;;;;10825204;33;20044;-74
2023/06/22 15:28:46;;;;;;;6.03;3.85;;;34.70;55.60;;;;;;10317830;27;15036200;-73
2023/06/22 15:34:49;;;;;;;5.37;3.70;;;34.70;54.80;;;;;;10699117;33;20055;-73
2023/06/22 15:40:51;;;;;;;7.15;3.30;;;34.70;55.10;;;;;;10699979;33;20446;-74
2023/06/22 15:46:54;;;;;;;8.88;3.17;;;34.70;54.90;;;;;;10700073;33;20060;-73
2023/06/22 15:52:56;;;;;;;7.60;3.92;;;34.70;54.60;;;;;;10699409;33;20063;-75
2023/06/22 15:58:58;;;;;;;5.22;3.42;;;34.70;54.50;;;;;;10722824;33;20028;-73
2023/06/22 16:05:01;;;;;;;7.00;4.45;;;34.70;54.80;;;;;;10783631;33;20024;-73
2023/06/22 16:11:03;;;;;;;4.37;2.62;;;34.70;54.40;;;;;;10787459;33;20047;-73
2023/06/22 16:17:05;;;;;;;10.55;2.65;;;34.60;54.30;;;;;;10792118;33;20016;-73
2023/06/22 16:23:08;;;;;;;8.57;4.93;;;34.40;54.70;;;;;;10792876;33;20012;-73
2023/06/22 16:29:10;;;;;;;4.62;2.85;;;34.20;55.10;;;;;;10793265;33;20029;-74
2023/06/22 16:35:14;;;;;;;9.43;3.42;;;33.90;55.30;;;;;;10793255;33;20399;-73
2023/06/22 16:41:17;;;;;;;5.37;2.75;;;33.80;55.70;;;;;;10769396;33;20075;-73
2023/06/22 16:47:19;;;;;;;5.45;3.22;;;33.70;56.00;;;;;;10776623;33;20023;-73
2023/06/22 16:53:21;;;;;;;13.02;5.68;;;33.50;57.30;;;;;;10762637;33;20362;-73
2023/06/22 16:59:23;;;;;;;5.60;3.10;;;33.40;56.90;;;;;;10756072;33;20049;-73
2023/06/22 17:05:26;;;;;;;7.37;3.67;;;33.30;57.90;;;;;;10743566;33;20021;-73
2023/06/22 17:11:29;;;;;;;7.18;3.35;;;33.30;58.00;;;;;;10755710;33;20025;-73
2023/06/22 17:17:33;;;;;;;7.15;4.07;;;33.30;58.40;;;;;;10755554;33;20028;-73
2023/06/22 17:23:35;;;;;;;5.87;3.70;;;33.30;58.50;;;;;;10751481;33;20029;-73
2023/06/22 17:29:37;;;;;;;8.13;3.10;;;33.20;58.30;;;;;;10753061;33;20048;-73
2023/06/22 17:35:48;;;;;;;7.20;2.75;;;33.10;59.10;;;;;;10755014;33;20051;-73
2023/06/22 17:41:51;;;;;;;6.35;2.67;;;33.10;59.60;;;;;;10754879;33;20032;-73
2023/06/22 17:47:53;;;;;;;5.62;2.67;;;33.00;59.20;;;;;;10754705;33;20048;-73
2023/06/22 17:53:56;;;;;;;4.78;2.62;;;32.90;60.10;;;;;;10754584;33;20028;-73
2023/06/22 17:59:58;;;;;;;4.87;2.65;;;32.80;60.40;;;;;;10754480;33;20017;-73
2023/06/22 18:06:00;;;;;;;3.28;2.70;;;32.70;60.90;;;;;;10754212;33;20024;-73
2023/06/22 18:12:05;;;;;;;20.40;3.03;;;32.70;61.70;;;;;;10754054;33;20047;-74
2023/06/22 18:18:08;;;;;;;5.12;2.42;;;32.60;62.00;;;;;;10753877;33;20024;-73
2023/06/22 18:24:11;;;;;;;3.83;2.08;;;32.50;62.90;;;;;;10753870;33;20035;-73
2023/06/22 18:30:15;;;;;;;4.00;2.42;;;32.50;63.30;;;;;;10736366;33;20072;-73
2023/06/22 18:36:23;;;;;;;4.03;1.87;;;32.40;63.90;;;;;;10753209;33;20063;-73
2023/06/22 18:42:28;;;;;;;3.15;2.22;;;32.30;64.40;;;;;;10753115;33;20028;-73
2023/06/22 18:48:30;;;;;;;3.90;2.30;;;32.30;65.00;;;;;;10752678;33;20024;-73
2023/06/22 18:54:44;;;;;;;3.83;2.50;;;32.30;65.30;;;;;;10751300;33;20057;-73
2023/06/22 19:00:51;;;;;;;3.05;1.75;;;32.20;65.80;;;;;;10749736;33;20025;-73
2023/06/22 19:06:57;;;;;;;4.72;2.35;;;32.10;66.70;;;;;;10750172;33;20402;-72
2023/06/22 19:13:11;;;;;;;2.67;1.45;;;31.90;67.20;;;;;;10750446;33;20054;-73
2023/06/22 19:19:16;;;;;;;6.60;1.95;;;31.90;67.80;;;;;;10750329;33;20098;-73
2023/06/22 19:25:22;;;;;;;3.47;2.00;;;31.80;68.20;;;;;;10751947;33;20327;-73
2023/06/22 19:31:26;;;;;;;7.67;3.07;;;31.70;69.50;;;;;;10751811;33;20056;-73
2023/06/22 19:37:29;;;;;;;2.70;2.05;;;31.60;70.30;;;;;;10751667;33;20017;-73
2023/06/22 19:43:31;;;;;;;3.45;1.75;;;31.40;70.60;;;;;;10748537;33;20043;-72
2023/06/22 19:49:34;;;;;;;4.72;2.72;;;31.30;71.20;;;;;;10750762;33;20058;-72
2023/06/22 19:55:41;;;;;;;4.22;2.55;;;31.30;71.40;;;;;;10748005;33;20029;-73
2023/06/22 20:01:44;;;;;;;7.55;1.83;;;31.30;72.20;;;;;;10751140;33;20395;-72
2023/06/22 20:07:46;;;;;;;5.35;2.75;;;31.20;72.30;;;;;;10747361;33;20059;-72
2023/06/22 20:13:52;;;;;;;4.43;2.15;;;31.30;72.60;;;;;;10733833;33;20036;-73
2023/06/22 20:19:54;;;;;;;4.75;2.70;;;31.20;73.00;;;;;;10750752;33;20036;-73
2023/06/22 20:25:58;;;;;;;3.83;2.00;;;31.10;73.00;;;;;;10750447;33;20021;-73
2023/06/22 20:32:07;;;;;;;5.37;2.10;;;31.10;73.30;;;;;;10750538;33;20020;-73
2023/06/22 20:38:09;;;;;;;3.67;2.17;;;31.10;73.70;;;;;;10750294;33;20350;-73
2023/06/22 20:44:11;;;;;;;4.75;2.45;;;31.10;73.60;;;;;;10749579;33;20025;-72
2023/06/22 20:50:14;;;;;;;3.65;2.53;;;31.00;73.70;;;;;;10750094;33;20013;-73
2023/06/22 20:56:16;;;;;;;5.12;2.87;;;30.90;74.30;;;;;;10748653;33;20025;-73
2023/06/22 21:02:18;;;;;;;9.52;2.72;;;30.80;75.00;;;;;;10752770;33;20043;-73
2023/06/22 21:08:20;;;;;;;4.87;3.30;;;30.60;75.60;;;;;;10742989;33;20043;-73
2023/06/22 21:14:22;;;;;;;8.38;3.22;;;30.60;75.90;;;;;;10755679;33;20047;-72
2023/06/22 21:20:25;;;;;;;6.87;2.72;;;30.60;76.20;;;;;;10756128;33;20067;-72
2023/06/22 21:26:27;;;;;;;5.87;3.15;;;30.60;75.90;;;;;;10755439;33;20024;-72
2023/06/22 21:32:29;;;;;;;3.50;2.20;;;30.50;76.20;;;;;;10755013;33;20021;-73
2023/06/22 21:38:31;;;;;;;3.95;2.30;;;30.50;76.30;;;;;;10752852;33;20037;-73
2023/06/22 21:44:33;;;;;;;4.22;2.95;;;30.50;76.50;;;;;;10752498;33;20025;-73
2023/06/22 21:50:35;;;;;;;5.00;2.65;;;30.50;76.40;;;;;;10752193;33;20021;-73
2023/06/22 21:56:37;;;;;;;6.28;3.40;;;30.40;76.20;;;;;;10754505;33;20051;-72
2023/06/22 22:02:39;;;;;;;5.50;3.53;;;30.50;76.10;;;;;;10752131;33;20051;-73
2023/06/22 22:08:42;;;;;;;4.65;3.17;;;30.50;76.20;;;;;;10754263;33;20018;-72
2023/06/22 22:14:45;;;;;;;9.10;4.37;;;30.40;76.30;;;;;;10753644;33;20047;-73
2023/06/22 22:20:47;;;;;;;6.70;4.10;;;30.30;76.20;;;;;;10740928;33;20013;-73
2023/06/22 22:26:49;;;;;;;4.50;3.15;;;30.30;76.20;;;;;;10740707;33;20055;-73
2023/06/22 22:32:51;;;;;;;6.55;3.65;;;30.10;76.10;;;;;;10750056;33;20051;-73
2023/06/22 22:38:53;;;;;;;5.35;3.92;;;30.00;76.30;;;;;;10753501;33;20024;-73
2023/06/22 22:44:55;;;;;;;4.70;3.30;;;29.90;76.40;;;;;;10739791;33;20024;-73
2023/06/22 22:51:00;;;;;;;5.72;3.53;;;29.80;76.50;;;;;;10753156;33;20047;-73
2023/06/22 22:57:01;;;;;;;5.45;3.05;;;29.80;76.40;;;;;;10749167;33;20020;-73
2023/06/22 23:03:03;;;;;;;5.45;2.65;;;29.80;76.30;;;;;;10749404;33;20024;-73
2023/06/22 23:09:07;;;;;;;8.07;3.85;;;29.60;76.50;;;;;;10752489;33;20017;-73
2023/06/22 23:15:09;;;;;;;5.00;3.60;;;29.70;76.70;;;;;;10752287;33;20021;-73
2023/06/22 23:21:11;;;;;;;4.30;3.37;;;29.70;77.20;;;;;;10752305;33;20411;-73
2023/06/22 23:27:15;;;;;;;7.90;4.03;;;29.60;77.20;;;;;;10775837;27;20374;-73
2023/06/22 23:33:17;;;;;;;7.47;4.78;;;29.40;77.80;;;;;;10825107;33;20028;-73
2023/06/22 23:39:19;;;;;;;6.53;4.37;;;29.30;78.40;;;;;;10825050;33;20340;-73
2023/06/22 23:45:21;;;;;;;6.15;3.95;;;29.40;78.70;;;;;;10824847;33;20028;-72
2023/06/22 23:51:56;;;;;;;5.37;3.55;;;29.30;78.70;;;;;;10901443;32;20053;-72
2023/06/22 23:57:59;;;;;;;5.82;4.30;;;29.30;78.40;;;;;;10887677;32;20070;-72
